Time;durP1;ratioP1;P1;durP2;ratioP2;P2;SDS_P1;SDS_P2;PMS_P1;PMS_P2;Temp;Humidity;BMP_temperature;BMP_pressure;BME280_temperature;BME280_humidity;BME280_pressure;Samples;Min_cycle;Max_cycle;Signal;HPM_P1;HPM_P2
2021/10/31 00:02:02;;;;;;;87.05;33.58;;;;;;;0.96;100.00;102575.84;1657032;85;21195;-84
2021/10/31 00:04:28;;;;;;;95.92;34.63;;;;;;;0.89;100.00;102573.45;1657250;85;21028;-83
2021/10/31 00:06:54;;;;;;;86.75;32.55;;;;;;;0.84;100.00;102573.05;1657355;85;21060;-83
2021/10/31 00:09:21;;;;;;;83.52;31.52;;;;;;;0.81;100.00;102574.67;1657056;85;21536;-83
2021/10/31 00:11:47;;;;;;;88.52;32.60;;;;;;;0.78;100.00;102571.81;1656835;85;21122;-83
2021/10/31 00:14:13;;;;;;;89.77;34.20;;;;;;;0.76;100.00;102573.77;1657280;85;21029;-83
2021/10/31 00:16:39;;;;;;;98.22;35.43;;;;;;;0.75;100.00;102569.95;1625044;86;20923;-83
2021/10/31 00:19:05;;;;;;;92.75;37.08;;;;;;;0.72;100.00;102573.72;1624902;86;21097;-83
2021/10/31 00:21:31;;;;;;;110.63;37.67;;;;;;;0.71;100.00;102570.73;1625026;87;21050;-83
2021/10/31 00:23:57;;;;;;;107.52;38.02;;;;;;;0.68;100.00;102568.38;1624613;86;21169;-82
2021/10/31 00:26:23;;;;;;;102.07;37.13;;;;;;;0.65;100.00;102572.15;1625004;86;20931;-83
2021/10/31 00:28:49;;;;;;;92.85;35.80;;;;;;;0.63;100.00;102570.62;1624986;87;21649;-83
2021/10/31 00:31:15;;;;;;;98.35;38.70;;;;;;;0.64;100.00;102569.13;1624967;87;21535;-83
2021/10/31 00:33:41;;;;;;;96.47;37.15;;;;;;;0.65;100.00;102573.48;1625035;87;21173;-83
2021/10/31 00:36:08;;;;;;;92.97;37.53;;;;;;;0.65;100.00;102573.97;1625240;86;21175;-83
2021/10/31 00:38:33;;;;;;;96.37;36.73;;;;;;;0.65;100.00;102573.97;1625071;86;21904;-81
2021/10/31 00:40:59;;;;;;;96.97;37.33;;;;;;;0.65;100.00;102573.97;1638114;83;20886;-81
2021/10/31 00:43:25;;;;;;;108.52;37.90;;;;;;;0.65;100.00;102567.34;1657331;85;20953;-83
2021/10/31 00:45:51;;;;;;;99.95;37.53;;;;;;;0.63;100.00;102569.30;1653635;85;20988;-88
2021/10/31 00:48:17;;;;;;;105.07;37.30;;;;;;;0.66;100.00;102579.61;1657184;85;20945;-84
2021/10/31 00:50:47;;;;;;;96.30;36.30;;;;;;;0.66;100.00;102574.31;1654156;85;21103;-88
2021/10/31 00:53:13;;;;;;;105.05;38.17;;;;;;;0.66;100.00;102572.98;1648268;85;21553;-83
2021/10/31 00:55:40;;;;;;;98.55;37.20;;;;;;;0.64;100.00;102565.65;1646030;85;20993;-83
2021/10/31 00:58:10;;;;;;;99.70;38.15;;;;;;;0.62;100.00;102568.47;1645868;86;21096;-83
2021/10/31 01:00:37;;;;;;;98.72;38.23;;;;;;;0.62;100.00;102563.66;1645787;85;21041;-83
2021/10/31 01:03:03;;;;;;;103.58;37.25;;;;;;;0.61;100.00;102563.28;1645722;85;21174;-82
2021/10/31 01:05:34;;;;;;;103.02;37.15;;;;;;;0.58;100.00;102552.97;1645950;85;21096;-82
2021/10/31 01:08:33;;;;;;;111.17;38.50;;;;;;;0.55;100.00;102554.59;1648309;85;21473;-83
2021/10/31 01:11:13;;;;;;;95.20;36.65;;;;;;;0.52;100.00;102552.22;1645867;85;21100;-87
2021/10/31 01:14:22;;;;;;;88.17;36.20;;;;;;;0.48;100.00;102547.70;1643343;85;21140;-83
2021/10/31 01:17:07;;;;;;;104.95;38.58;;;;;;;0.47;100.00;102544.69;1645854;85;21074;-81
2021/10/31 01:20:06;;;;;;;103.22;37.50;;;;;;;0.44;100.00;102548.49;1643919;85;21529;-83
2021/10/31 01:23:08;;;;;;;99.75;37.05;;;;;;;0.41;100.00;102550.11;1645452;85;21089;-83
2021/10/31 01:25:46;;;;;;;91.57;35.48;;;;;;;0.37;100.00;102552.69;1613828;87;21035;-83
2021/10/31 01:28:50;;;;;;;106.80;38.25;;;;;;;0.33;100.00;102553.96;1616965;87;21494;-83
2021/10/31 01:31:37;;;;;;;98.67;37.48;;;;;;;0.31;100.00;102552.43;1616607;88;21714;-83
2021/10/31 01:34:19;;;;;;;100.33;39.38;;;;;;;0.28;100.00;102555.37;1616951;87;22708;-83
2021/10/31 01:36:56;;;;;;;102.58;39.58;;;;;;;0.25;100.00;102555.16;1616893;88;21091;-83
2021/10/31 01:39:27;;;;;;;98.45;38.90;;;;;;;0.22;100.00;102555.45;1570843;91;21062;-84
2021/10/31 01:42:04;;;;;;;104.85;38.33;;;;;;;0.18;100.00;102554.91;1572512;91;21102;-84
2021/10/31 01:44:57;;;;;;;114.37;39.23;;;;;;;0.14;100.00;102546.04;1538657;93;21110;-83
2021/10/31 01:47:40;;;;;;;100.60;39.15;;;;;;;0.10;100.00;102554.77;1538884;93;21607;-83
2021/10/31 01:50:09;;;;;;;;;;;;;;;0.08;100.00;102554.56;1538705;93;21168;-83
2021/10/31 01:52:49;;;;;;;103.58;39.30;;;;;;;0.07;100.00;102559.03;1538663;91;20164;-84
2021/10/31 01:55:22;;;;;;;100.90;38.58;;;;;;;0.08;100.00;102556.72;1538905;93;21117;-84
2021/10/31 01:57:52;;;;;;;109.10;40.08;;;;;;;0.05;100.00;102551.70;1538708;93;22026;-84
2021/10/31 02:00:19;;;;;;;98.20;37.73;;;;;;;0.04;100.00;102551.86;1535856;93;21590;-83
2021/10/31 02:02:46;;;;;;;93.72;37.08;;;;;;;0.01;100.00;102554.30;1538594;93;21082;-84
2021/10/31 02:05:20;;;;;;;100.60;38.55;;;;;;;0.01;100.00;102548.17;1539102;93;21583;-83
2021/10/31 02:07:54;;;;;;;99.77;38.70;;;;;;;0.00;100.00;102544.69;1536399;93;21044;-84
2021/10/31 02:10:22;;;;;;;106.87;39.00;;;;;;;-0.01;100.00;102545.65;1519544;93;21997;-82
2021/10/31 02:12:50;;;;;;;100.87;39.08;;;;;;;-0.02;100.00;102550.12;1538582;93;21085;-84
2021/10/31 02:15:18;;;;;;;104.80;36.98;;;;;;;-0.03;100.00;102546.27;1538836;93;21125;-84
2021/10/31 02:17:48;;;;;;;112.00;38.20;;;;;;;-0.03;100.00;102551.57;1549720;91;21078;-84
2021/10/31 02:20:16;;;;;;;109.15;40.48;;;;;;;-0.05;100.00;102546.92;1555913;92;21150;-83
2021/10/31 02:22:54;;;;;;;104.53;40.33;;;;;;;-0.05;100.00;102548.25;1629973;85;21157;-84
2021/10/31 02:25:22;;;;;;;104.53;38.17;;;;;;;-0.04;100.00;102546.77;1645774;85;21025;-87
2021/10/31 02:27:48;;;;;;;107.00;40.15;;;;;;;-0.05;100.00;102546.92;1645733;85;21037;-84
2021/10/31 02:30:15;;;;;;;118.33;41.73;;;;;;;-0.06;100.00;102541.25;1641694;85;21120;-84
2021/10/31 02:32:41;;;;;;;108.67;41.75;;;;;;;-0.08;100.00;102548.03;1645854;85;21112;-84
2021/10/31 02:35:11;;;;;;;107.75;40.83;;;;;;;-0.12;100.00;102545.34;1645717;85;21786;-86
2021/10/31 02:37:40;;;;;;;115.17;41.28;;;;;;;-0.16;100.00;102542.59;1645336;85;21088;-84
2021/10/31 02:40:10;;;;;;;111.03;41.73;;;;;;;-0.21;100.00;102540.85;1657028;85;21103;-84
2021/10/31 02:42:37;;;;;;;106.60;42.45;;;;;;;-0.23;100.00;102534.87;1661239;85;20992;-84
2021/10/31 02:45:05;;;;;;;106.35;42.08;;;;;;;-0.26;100.00;102536.48;1661433;85;21082;-84
2021/10/31 02:47:48;;;;;;;108.32;41.33;;;;;;;-0.25;100.00;102538.98;1661328;85;21539;-84
2021/10/31 02:50:19;;;;;;;107.55;42.33;;;;;;;-0.24;100.00;102543.32;1659078;85;21714;-84
2021/10/31 02:53:08;;;;;;;114.50;42.90;;;;;;;-0.22;100.00;102536.54;1650787;85;20999;-84
2021/10/31 02:56:14;;;;;;;115.28;44.50;;;;;;;-0.23;100.00;102534.87;1647659;85;21135;-82
2021/10/31 02:59:08;;;;;;;110.12;43.75;;;;;;;-0.26;100.00;102538.64;1647622;85;21127;-83
2021/10/31 03:01:36;;;;;;;112.97;46.00;;;;;;;-0.27;100.00;102534.30;1647543;85;21267;-84
2021/10/31 03:04:02;;;;;;;124.50;48.50;;;;;;;-0.29;100.00;102528.33;1647664;85;21524;-83
2021/10/31 03:06:28;;;;;;;131.43;48.10;;;;;;;-0.28;100.00;102526.51;1647642;85;21162;-84
2021/10/31 03:08:54;;;;;;;125.95;48.05;;;;;;;-0.28;100.00;102531.80;1647751;85;21084;-84
2021/10/31 03:11:20;;;;;;;130.60;47.65;;;;;;;-0.28;100.00;102524.69;1647863;85;21011;-83
2021/10/31 03:13:46;;;;;;;116.90;47.70;;;;;;;-0.29;100.00;102523.03;1647698;85;21141;-83
2021/10/31 03:16:13;;;;;;;136.30;48.48;;;;;;;-0.30;100.00;102524.48;1647501;85;21084;-83
2021/10/31 03:18:38;;;;;;;126.05;49.48;;;;;;;-0.32;100.00;102526.45;1647536;85;20933;-84
2021/10/31 03:21:05;;;;;;;123.82;47.65;;;;;;;-0.34;100.00;102524.42;1647600;85;21003;-84
2021/10/31 03:23:31;;;;;;;132.97;49.65;;;;;;;-0.36;100.00;102515.77;1666008;84;21614;-83
2021/10/31 03:25:57;;;;;;;131.80;48.80;;;;;;;-0.39;100.00;102519.53;1673645;84;21153;-83
2021/10/31 03:28:23;;;;;;;133.63;51.08;;;;;;;-0.37;100.00;102514.94;1673341;84;20891;-84
2021/10/31 03:30:49;;;;;;;132.70;49.20;;;;;;;-0.36;100.00;102516.60;1673659;84;21133;-84
2021/10/31 03:33:16;;;;;;;130.05;49.73;;;;;;;-0.36;100.00;102516.60;1675908;84;21119;-84
2021/10/31 03:35:42;;;;;;;136.95;51.15;;;;;;;-0.37;100.00;102514.11;1676562;84;21114;-84
2021/10/31 03:38:08;;;;;;;135.57;50.15;;;;;;;-0.39;100.00;102513.41;1661051;85;21149;-84
2021/10/31 03:40:35;;;;;;;121.02;48.60;;;;;;;-0.40;100.00;102517.87;1659969;86;21004;-83
2021/10/31 03:43:00;;;;;;;136.65;50.30;;;;;;;-0.41;100.00;102508.27;1660035;85;21072;-83
2021/10/31 03:45:27;;;;;;;125.00;50.52;;;;;;;-0.42;100.00;102501.27;1660155;85;21675;-84
2021/10/31 03:47:53;;;;;;;132.67;49.40;;;;;;;-0.42;100.00;102499.12;1659983;85;21056;-84
2021/10/31 03:50:23;;;;;;;137.07;51.13;;;;;;;-0.43;100.00;102496.97;1659513;85;22027;-84
2021/10/31 03:52:51;;;;;;;135.28;50.08;;;;;;;-0.41;100.00;102498.13;1657193;85;21429;-83
2021/10/31 03:55:19;;;;;;;117.77;48.30;;;;;;;-0.42;100.00;102503.09;1657034;85;21137;-84
2021/10/31 03:57:44;;;;;;;123.38;48.63;;;;;;;-0.43;100.00;102502.26;1657216;85;21084;-84
2021/10/31 04:00:14;;;;;;;122.55;48.15;;;;;;;-0.43;100.00;102500.11;1657427;85;20929;-84
2021/10/31 04:02:41;;;;;;;123.62;49.83;;;;;;;-0.47;100.00;102492.94;1657161;85;21052;-84
2021/10/31 04:05:09;;;;;;;127.27;50.20;;;;;;;-0.48;100.00;102491.24;1657022;83;21073;-83
2021/10/31 04:07:35;;;;;;;135.12;49.80;;;;;;;-0.53;100.00;102481.09;1653911;85;21072;-84
2021/10/31 04:10:04;;;;;;;137.28;50.95;;;;;;;-0.60;100.00;102479.95;1657027;85;21474;-84
2021/10/31 04:12:29;;;;;;;143.05;57.20;;;;;;;-0.63;100.00;102474.94;1656920;85;21132;-84
2021/10/31 04:14:55;;;;;;;145.92;55.23;;;;;;;-0.66;100.00;102472.58;1653849;85;21048;-84
2021/10/31 04:17:21;;;;;;;138.20;55.17;;;;;;;-0.64;100.00;102474.60;1630181;86;20917;-84
2021/10/31 04:19:47;;;;;;;141.95;54.48;;;;;;;-0.62;100.00;102468.66;1630113;86;21465;-83
2021/10/31 04:22:14;;;;;;;132.90;53.40;;;;;;;-0.60;100.00;102472.51;1653215;85;21584;-83
2021/10/31 04:24:40;;;;;;;136.95;52.58;;;;;;;-0.58;100.00;102470.07;1634746;85;22322;-83
2021/10/31 04:27:07;;;;;;;143.15;55.03;;;;;;;-0.53;100.00;102467.85;1630407;86;21166;-83
2021/10/31 04:29:33;;;;;;;146.25;53.78;;;;;;;-0.52;100.00;102468.19;1630396;86;21116;-84
2021/10/31 04:31:59;;;;;;;123.07;49.67;;;;;;;-0.50;100.00;102468.03;1650312;85;21549;-83
2021/10/31 04:34:26;;;;;;;134.30;52.35;;;;;;;-0.49;100.00;102470.55;1657314;85;20898;-83
2021/10/31 04:36:52;;;;;;;148.38;56.53;;;;;;;-0.49;100.00;102465.75;1638105;85;21076;-84
2021/10/31 04:39:19;;;;;;;145.32;57.83;;;;;;;-0.49;100.00;102464.42;1657333;85;21697;-83
2021/10/31 04:41:46;;;;;;;184.03;66.28;;;;;;;-0.48;100.00;102461.63;1657118;85;21045;-84
2021/10/31 04:44:14;;;;;;;167.90;65.12;;;;;;;-0.44;100.00;102465.31;1657144;85;21521;-82
2021/10/31 04:46:40;;;;;;;171.85;64.42;;;;;;;-0.38;100.00;102464.28;1657306;85;21466;-84
2021/10/31 04:49:06;;;;;;;146.35;53.92;;;;;;;-0.32;100.00;102464.20;1638620;86;21079;-82
2021/10/31 04:51:32;;;;;;;134.70;51.42;;;;;;;-0.27;100.00;102468.56;1657934;85;21182;-84
2021/10/31 04:53:58;;;;;;;145.53;52.05;;;;;;;-0.24;100.00;102468.28;1662756;84;20976;-83
2021/10/31 04:56:24;;;;;;;132.50;48.92;;;;;;;-0.17;100.00;102469.89;1635827;86;21005;-82
2021/10/31 04:58:51;;;;;;;117.62;47.00;;;;;;;-0.10;100.00;102467.84;1635704;84;20985;-83
2021/10/31 05:01:18;;;;;;;120.55;44.50;;;;;;;-0.06;100.00;102462.62;1635625;85;21103;-83
2021/10/31 05:03:45;;;;;;;118.87;44.23;;;;;;;-0.01;100.00;102463.00;1635800;85;21095;-83
2021/10/31 05:06:11;;;;;;;113.92;41.95;;;;;;;0.06;100.00;102461.95;1662477;85;21020;-83
2021/10/31 05:08:37;;;;;;;115.72;42.85;;;;;;;0.21;100.00;102465.80;1662330;85;21619;-83
2021/10/31 05:11:05;;;;;;;106.10;40.25;;;;;;;0.33;100.00;102469.11;1662572;85;20885;-82
2021/10/31 05:13:31;;;;;;;112.72;40.17;;;;;;;0.50;100.00;102469.30;1662110;85;21695;-83
2021/10/31 05:15:58;;;;;;;107.10;39.70;;;;;;;0.66;100.00;102465.53;1661020;85;21293;-86
2021/10/31 05:18:24;;;;;;;97.45;36.90;;;;;;;0.84;100.00;102469.55;1657949;85;21020;-82
2021/10/31 05:20:50;;;;;;;101.00;36.68;;;;;;;1.00;100.00;102463.56;1657123;85;21006;-83
2021/10/31 05:23:16;;;;;;;102.22;36.45;;;;;;;1.12;100.00;102463.72;1657148;85;20911;-84
2021/10/31 05:25:42;;;;;;;95.05;35.98;;;;;;;1.24;100.00;102461.67;1657245;85;20896;-83
2021/10/31 05:28:08;;;;;;;105.50;39.85;;;;;;;1.32;100.00;102461.25;1657101;85;21630;-83
2021/10/31 05:30:34;;;;;;;108.60;41.30;;;;;;;1.44;100.00;102462.32;1656870;85;21556;-83
2021/10/31 05:33:00;;;;;;;110.20;40.20;;;;;;;1.54;100.00;102463.09;1657186;85;21642;-82
2021/10/31 05:35:26;;;;;;;112.62;40.85;;;;;;;1.72;100.00;102463.05;1657183;85;20984;-83
2021/10/31 05:38:00;;;;;;;102.58;40.33;;;;;;;2.01;100.00;102474.72;1657173;85;21042;-84
2021/10/31 05:40:27;;;;;;;;;;;;;;;2.79;100.00;102473.23;1659358;85;21369;-83
2021/10/31 05:42:53;;;;;;;86.42;36.50;;;;;;;4.19;100.00;102474.95;1656852;85;20213;-83
2021/10/31 05:45:20;;;;;;;80.45;33.83;;;;;;;5.75;100.00;102474.05;1657829;84;21161;-84
2021/10/31 05:47:59;;;;;;;74.12;32.95;;;;;;;7.26;100.00;102457.47;1659175;84;21258;-84
2021/10/31 05:50:25;;;;;;;70.32;31.05;;;;;;;9.23;100.00;102474.64;1657882;85;21083;-84
2021/10/31 05:52:51;;;;;;;68.15;28.52;;;;;;;10.93;100.00;102479.67;1633754;84;21145;-85
2021/10/31 05:55:18;;;;;;;67.82;29.23;;;;;;;12.22;100.00;102479.62;1663142;85;21096;-85
2021/10/31 05:57:44;;;;;;;56.13;25.75;;;;;;;13.73;100.00;102474.77;1662910;83;21062;-86
2021/10/31 06:00:13;;;;;;;53.20;25.48;;;;;;;14.62;100.00;102475.44;1661415;84;21121;-85
2021/10/31 06:02:40;;;;;;;52.20;24.85;;;;;;;14.92;100.00;102476.56;1664057;84;21259;-86
2021/10/31 06:05:11;;;;;;;53.78;24.57;;;;;;;14.89;83.71;102470.26;1665400;84;21801;-86
2021/10/31 06:07:37;;;;;;;53.05;24.92;;;;;;;15.27;77.40;102476.92;1666798;84;21542;-84
2021/10/31 06:10:04;;;;;;;54.42;25.23;;;;;;;15.96;71.60;102473.16;1666677;84;20992;-87
2021/10/31 06:12:30;;;;;;;51.30;24.70;;;;;;;16.32;67.91;102475.31;1664285;84;21508;-87
2021/10/31 06:14:57;;;;;;;59.08;26.35;;;;;;;16.74;59.23;102471.18;1663192;84;21000;-86
2021/10/31 06:17:24;;;;;;;59.25;28.20;;;;;;;16.78;55.17;102471.80;1663393;86;21139;-89
2021/10/31 06:19:53;;;;;;;53.65;27.27;;;;;;;17.06;57.70;102471.28;1663635;84;21115;-87
2021/10/31 06:22:19;;;;;;;52.05;28.98;;;;;;;17.51;52.58;102467.31;1662012;85;21078;-86
2021/10/31 06:24:45;;;;;;;64.32;32.75;;;;;;;17.62;52.77;102467.68;1659179;84;21713;-87
2021/10/31 06:27:11;;;;;;;64.45;31.57;;;;;;;17.61;50.43;102459.20;1663483;84;21034;-87
2021/10/31 06:29:37;;;;;;;77.87;39.25;;;;;;;17.84;49.43;102468.13;1663825;84;21025;-86
2021/10/31 06:32:09;;;;;;;74.45;37.88;;;;;;;17.89;49.89;102459.98;1664007;83;21935;-87
2021/10/31 06:34:36;;;;;;;70.03;32.75;;;;;;;18.30;49.53;102455.57;1660371;83;21071;-86
2021/10/31 06:37:03;;;;;;;75.28;38.05;;;;;;;18.65;47.97;102458.16;1659612;84;20942;-86
2021/10/31 06:39:28;;;;;;;77.27;38.35;;;;;;;18.97;46.38;102455.27;1661708;84;21094;-86
2021/10/31 06:41:54;;;;;;;81.53;41.37;;;;;;;18.92;45.05;102456.61;1661204;85;21998;-86
2021/10/31 06:44:20;;;;;;;67.58;32.90;;;;;;;19.24;43.93;102459.12;1661114;85;20912;-86
2021/10/31 06:46:46;;;;;;;68.07;33.65;;;;;;;18.92;43.69;102456.61;1661384;85;20998;-86
2021/10/31 06:49:13;;;;;;;69.17;34.15;;;;;;;19.01;44.07;102445.42;1656455;84;20994;-87
2021/10/31 06:51:39;;;;;;;70.95;36.10;;;;;;;19.33;42.81;102457.21;1656498;84;21573;-87
2021/10/31 06:54:05;;;;;;;88.65;43.10;;;;;;;19.47;42.49;102452.29;1642913;85;21094;-86
2021/10/31 06:56:31;;;;;;;69.60;36.83;;;;;;;19.73;41.83;102451.72;1646055;85;21068;-87
2021/10/31 06:58:58;;;;;;;75.55;38.48;;;;;;;20.10;41.03;102447.81;1645636;85;21017;-87
2021/10/31 07:01:24;;;;;;;68.80;36.40;;;;;;;19.99;39.97;102452.23;1643781;85;21100;-89
2021/10/31 07:03:50;;;;;;;74.77;37.08;;;;;;;20.05;40.72;102442.90;1642039;85;20897;-88
2021/10/31 07:06:17;;;;;;;78.42;39.23;;;;;;;20.40;40.34;102440.02;1642135;86;21935;-87
2021/10/31 07:08:44;;;;;;;74.03;37.63;;;;;;;20.59;39.94;102446.28;1638352;86;21549;-89
2021/10/31 07:11:11;;;;;;;77.70;38.13;;;;;;;21.04;38.60;102442.98;1638317;86;21501;-87
2021/10/31 07:13:37;;;;;;;69.40;35.28;;;;;;;20.74;38.42;102451.67;1638672;86;20981;-88
2021/10/31 07:16:03;;;;;;;70.90;36.85;;;;;;;20.68;38.10;102441.00;1638354;86;21068;-88
2021/10/31 07:18:30;;;;;;;75.80;36.95;;;;;;;20.85;37.82;102439.55;1638337;86;21073;-87
2021/10/31 07:20:56;;;;;;;71.42;36.28;;;;;;;21.13;37.61;102433.03;1639927;85;21064;-87
2021/10/31 07:23:26;;;;;;;66.25;35.55;;;;;;;20.74;37.63;102440.71;1641309;85;20933;-88
2021/10/31 07:25:53;;;;;;;70.90;35.90;;;;;;;21.10;37.59;102437.16;1644309;85;21041;-89
2021/10/31 07:28:19;;;;;;;63.87;34.08;;;;;;;21.19;37.73;102436.00;1643662;85;21068;-88
2021/10/31 07:30:45;;;;;;;58.92;31.25;;;;;;;21.32;36.85;102432.61;1642229;85;21151;-90
2021/10/31 07:33:13;;;;;;;58.38;28.85;;;;;;;21.10;37.19;102434.42;1637844;86;21052;-90
2021/10/31 07:35:39;;;;;;;63.50;31.25;;;;;;;20.81;37.25;102432.98;1636098;85;21549;-89
2021/10/31 07:38:05;;;;;;;55.03;29.63;;;;;;;20.71;36.92;102434.43;1616665;85;21129;-89
2021/10/31 07:40:31;;;;;;;54.70;29.10;;;;;;;20.56;36.94;102431.75;1615960;87;22658;-90
2021/10/31 07:42:57;;;;;;;52.65;27.45;;;;;;;20.87;36.72;102427.73;1637873;85;21178;-88
2021/10/31 07:45:23;;;;;;;53.70;27.90;;;;;;;20.81;36.79;102431.61;1641737;86;21699;-89
2021/10/31 07:47:49;;;;;;;60.17;28.23;;;;;;;20.90;37.25;102433.20;1641388;86;21152;-89
2021/10/31 07:50:15;;;;;;;68.97;28.67;;;;;;;21.42;36.49;102429.55;1640551;86;21020;-91
2021/10/31 07:52:45;;;;;;;52.93;26.75;;;;;;;21.67;35.77;102410.63;1643717;86;21776;-90
2021/10/31 07:55:15;;;;;;;46.00;25.12;;;;;;;21.67;35.77;102410.63;1653353;85;21301;-89
2021/10/31 07:57:40;;;;;;;45.73;24.77;;;;;;;21.87;35.42;102425.50;1654725;85;21123;-88
2021/10/31 08:00:07;;;;;;;48.13;23.27;;;;;;;21.82;35.87;102419.25;1638922;85;21576;-88
2021/10/31 08:02:35;;;;;;;49.83;24.57;;;;;;;22.40;35.03;102426.00;1652006;85;21071;-88
2021/10/31 08:05:01;;;;;;;43.10;24.90;;;;;;;22.12;34.52;102424.41;1656025;85;21057;-89
2021/10/31 08:07:29;;;;;;;47.20;25.08;;;;;;;22.22;34.94;102420.17;1657270;85;21958;-89
2021/10/31 08:09:57;;;;;;;46.90;24.65;;;;;;;;;;1656380;85;21074;-88
2021/10/31 08:12:23;;;;;;;51.35;25.05;;;;;;;22.20;34.03;102420.20;1656653;85;21107;-84
2021/10/31 08:14:49;;;;;;;54.63;25.25;;;;;;;21.97;34.23;102417.17;1656435;85;21019;-89
2021/10/31 08:17:14;;;;;;;42.17;22.30;;;;;;;22.23;34.73;102416.30;1656585;86;20945;-85
2021/10/31 08:19:40;;;;;;;43.90;23.07;;;;;;;22.30;34.36;102420.09;1657837;85;21176;-86
2021/10/31 08:22:06;;;;;;;43.50;22.70;;;;;;;21.82;34.13;102417.88;1632292;86;21058;-86
2021/10/31 08:24:32;;;;;;;45.45;22.73;;;;;;;19.89;35.57;102414.77;1657434;85;21016;-86
2021/10/31 08:26:58;;;;;;;48.55;21.33;;;;;;;18.04;38.30;102419.14;1657265;85;21685;-85
2021/10/31 08:29:24;;;;;;;43.87;20.80;;;;;;;16.48;40.86;102416.44;1657392;85;20916;-85
2021/10/31 08:31:53;;;;;;;52.48;22.37;;;;;;;15.40;43.56;102417.36;1655114;85;21179;-83
2021/10/31 08:34:19;;;;;;;47.58;19.87;;;;;;;14.76;45.42;102415.74;1656707;85;21038;-84
2021/10/31 08:36:45;;;;;;;50.52;19.90;;;;;;;14.07;47.25;102418.38;1656819;85;21115;-84
2021/10/31 08:39:11;;;;;;;45.65;20.00;;;;;;;13.37;49.34;102415.14;1649931;85;20992;-84
2021/10/31 08:41:38;;;;;;;43.60;18.35;;;;;;;12.97;52.02;102413.58;1653897;85;21040;-83
2021/10/31 08:44:06;;;;;;;43.80;19.25;;;;;;;12.73;55.14;102406.73;1656321;85;21081;-84
2021/10/31 08:46:33;;;;;;;50.35;18.98;;;;;;;12.55;58.84;102397.81;1656542;85;21093;-84
2021/10/31 08:49:00;;;;;;;45.63;17.82;;;;;;;12.43;61.58;102395.87;1657115;85;21068;-83
2021/10/31 08:51:27;;;;;;;43.05;17.30;;;;;;;12.13;66.55;102380.97;1652888;85;21000;-84
2021/10/31 08:53:55;;;;;;;46.88;16.32;;;;;;;12.13;68.66;102377.45;1655407;85;21546;-83
2021/10/31 08:56:26;;;;;;;44.53;17.85;;;;;;;12.13;68.66;102377.45;1653958;85;21247;-83
2021/10/31 08:58:52;;;;;;;42.88;16.73;;;;;;;12.09;68.92;102372.18;1653740;86;21051;-82
2021/10/31 09:01:19;;;;;;;40.50;15.20;;;;;;;12.10;71.49;102365.74;1631662;86;21016;-83
2021/10/31 09:03:47;;;;;;;28.20;11.03;;;;;;;12.12;73.08;102365.82;1649635;83;21534;-85
2021/10/31 09:06:14;;;;;;;28.80;10.55;;;;;;;12.14;72.50;102358.82;1656932;85;21047;-85
2021/10/31 09:08:43;;;;;;;24.60;9.58;;;;;;;12.10;72.10;102353.05;1652948;85;21898;-85
2021/10/31 09:11:10;;;;;;;24.25;9.30;;;;;;;12.09;74.16;102352.76;1652814;85;21526;-81
2021/10/31 09:13:37;;;;;;;21.30;9.15;;;;;;;12.15;73.40;102351.03;1650825;85;21961;-83
2021/10/31 09:16:04;;;;;;;29.67;10.05;;;;;;;12.14;73.64;102347.48;1653986;85;22202;-83
2021/10/31 09:18:32;;;;;;;26.70;9.85;;;;;;;12.10;73.25;102340.89;1655478;85;21127;-83
2021/10/31 09:20:59;;;;;;;22.70;8.98;;;;;;;12.14;76.20;102345.30;1657439;85;21995;-84
2021/10/31 09:23:26;;;;;;;26.90;9.73;;;;;;;12.16;74.58;102337.27;1657348;85;21527;-83
2021/10/31 09:25:52;;;;;;;29.55;11.65;;;;;;;12.20;75.16;102338.98;1657292;85;21095;-83
2021/10/31 09:28:18;;;;;;;28.17;9.70;;;;;;;12.19;73.76;102338.17;1657275;85;21103;-83
2021/10/31 09:30:44;;;;;;;24.63;9.00;;;;;;;12.16;74.62;102327.81;1638182;85;21043;-83
2021/10/31 09:33:12;;;;;;;21.62;7.15;;;;;;;12.22;74.49;102318.80;1657544;85;21084;-80
2021/10/31 09:35:47;;;;;;;21.40;7.80;;;;;;;12.32;74.32;102320.94;1657376;85;21040;-83
2021/10/31 09:38:13;;;;;;;26.90;9.65;;;;;;;12.35;73.82;102310.20;1654219;85;21494;-82
2021/10/31 09:40:39;;;;;;;25.08;8.75;;;;;;;12.43;73.51;102304.48;1657399;85;21544;-82
2021/10/31 09:43:06;;;;;;;26.27;8.90;;;;;;;12.46;73.67;102301.31;1657418;85;21152;-82
2021/10/31 09:45:35;;;;;;;23.77;8.03;;;;;;;12.56;74.62;102298.89;1656322;85;21084;-82
2021/10/31 09:48:09;;;;;;;15.60;6.55;;;;;;;12.68;71.88;102296.22;1657349;84;21056;-80
2021/10/31 09:50:39;;;;;;;16.02;6.03;;;;;;;12.70;70.88;102299.49;1576234;89;21132;-82
2021/10/31 09:53:07;;;;;;;19.37;6.97;;;;;;;12.72;69.40;102291.98;1576825;89;21239;-82
2021/10/31 09:55:34;;;;;;;19.75;6.87;;;;;;;12.71;69.08;102287.10;1565098;90;21106;-83
2021/10/31 09:58:03;;;;;;;19.02;6.60;;;;;;;12.78;69.51;102284.81;1585522;90;21773;-83
2021/10/31 10:00:42;;;;;;;16.48;6.83;;;;;;;12.76;68.42;102280.98;1585180;90;21145;-82
2021/10/31 10:03:35;;;;;;;17.67;7.20;;;;;;;12.77;68.64;102268.30;1585316;90;21030;-81
2021/10/31 10:06:24;;;;;;;23.67;7.30;;;;;;;12.82;69.73;102267.87;1508388;93;21110;-82
2021/10/31 10:09:07;;;;;;;14.78;6.20;;;;;;;12.85;67.58;102265.23;1503424;93;21935;-84
2021/10/31 10:11:38;;;;;;;17.32;5.53;;;;;;;12.78;68.03;102265.34;1471300;96;21299;-84
2021/10/31 10:14:24;;;;;;;16.90;6.20;;;;;;;12.80;67.54;102259.18;1462419;96;21129;-85
2021/10/31 10:16:47;;;;;;;;;;;;;;;12.77;67.14;102243.95;1454149;97;21701;-85
2021/10/31 10:19:24;;;;;;;16.37;5.72;;;;;;;12.78;67.78;102247.76;1446047;98;20212;-85
2021/10/31 10:22:06;;;;;;;40.75;12.25;;;;;;;12.76;67.24;102245.81;1397208;102;21097;-83
2021/10/31 10:24:38;;;;;;;19.20;7.70;;;;;;;12.75;67.32;102246.87;1373608;102;22057;-81
2021/10/31 10:27:08;;;;;;;20.43;6.30;;;;;;;12.78;66.80;102244.23;1373286;103;21172;-83
2021/10/31 10:29:40;;;;;;;23.62;8.38;;;;;;;12.81;66.90;102243.77;1375684;103;21608;-83
2021/10/31 10:32:11;;;;;;;21.57;7.30;;;;;;;12.84;67.03;102236.53;1375737;103;21179;-85
2021/10/31 10:34:49;;;;;;;17.25;6.37;;;;;;;12.89;66.70;102244.78;1375480;103;21167;-87
2021/10/31 10:37:24;;;;;;;14.30;6.12;;;;;;;12.89;66.29;102225.84;1375792;103;21171;-85
2021/10/31 10:40:07;;;;;;;17.02;6.17;;;;;;;12.93;66.40;102229.17;1375626;103;21008;-85
2021/10/31 10:42:37;;;;;;;19.48;6.87;;;;;;;12.95;66.09;102216.78;1377457;103;21165;-80
2021/10/31 10:45:08;;;;;;;22.42;8.18;;;;;;;12.98;67.11;102221.72;1376754;103;21222;-81
2021/10/31 10:47:48;;;;;;;29.80;10.50;;;;;;;12.98;66.68;102216.30;1353015;105;21190;-84
2021/10/31 10:50:18;;;;;;;37.88;12.05;;;;;;;13.02;66.14;102213.95;1351459;106;21355;-84
2021/10/31 10:52:46;;;;;;;34.53;11.12;;;;;;;13.00;65.66;102206.58;1430687;100;21582;-82
2021/10/31 10:55:18;;;;;;;32.20;11.40;;;;;;;13.03;65.92;102204.75;1397538;101;21621;-81
2021/10/31 10:57:48;;;;;;;26.15;9.23;;;;;;;13.10;65.75;102197.36;1406765;101;21611;-86
2021/10/31 11:00:20;;;;;;;26.15;9.68;;;;;;;13.09;64.70;102197.89;1441481;99;21325;-83
2021/10/31 11:03:06;;;;;;;26.10;9.50;;;;;;;13.15;65.62;102201.53;1433437;99;21218;-80
2021/10/31 11:05:37;;;;;;;31.37;11.25;;;;;;;13.17;64.98;102193.98;1496417;94;21087;-87
2021/10/31 11:08:10;;;;;;;37.73;14.10;;;;;;;13.22;64.47;102191.92;1495761;95;21111;-80
2021/10/31 11:10:46;;;;;;;35.15;13.45;;;;;;;13.18;64.11;102191.59;1478359;97;21051;-81
2021/10/31 11:13:12;;;;;;;33.08;11.93;;;;;;;13.15;64.80;102186.11;1413811;101;21269;-81
2021/10/31 11:15:38;;;;;;;39.53;11.97;;;;;;;13.13;64.76;102185.52;1413782;101;21213;-83
2021/10/31 11:18:07;;;;;;;32.03;11.53;;;;;;;13.15;64.73;102185.30;1429569;99;21658;-81